sensor_id;sensor_type;location;lat;lon;timestamp;pressure;altitude;pressure_sealevel;temperature;humidity
56334;BME280;42240;53.626;55.886;2022-12-24T00:01:28;78390.25;;;-145.10;100.00
56334;BME280;42240;53.626;55.886;2022-12-24T00:03:01;78390.25;;;-145.10;100.00
56334;BME280;42240;53.626;55.886;2022-12-24T00:04:34;78396.19;;;-145.10;100.00
56334;BME280;42240;53.626;55.886;2022-12-24T00:06:08;78384.31;;;-145.10;100.00
56334;BME280;42240;53.626;55.886;2022-12-24T00:07:41;78408.06;;;-145.10;100.00
56334;BME280;42240;53.626;55.886;2022-12-24T00:09:14;78394.22;;;-145.10;100.00
56334;BME280;42240;53.626;55.886;2022-12-24T00:10:50;78394.22;;;-145.10;100.00
56334;BME280;42240;53.626;55.886;2022-12-24T00:12:24;78396.19;;;-145.10;100.00
56334;BME280;42240;53.626;55.886;2022-12-24T00:13:57;78396.19;;;-145.10;100.00
56334;BME280;42240;53.626;55.886;2022-12-24T00:15:30;78394.22;;;-145.10;100.00
56334;BME280;42240;53.626;55.886;2022-12-24T00:17:02;78396.19;;;-145.10;100.00
56334;BME280;42240;53.626;55.886;2022-12-24T00:18:35;78400.13;;;-145.10;100.00
56334;BME280;42240;53.626;55.886;2022-12-24T00:20:16;78396.19;;;-145.10;100.00
56334;BME280;42240;53.626;55.886;2022-12-24T00:21:49;78406.06;;;-145.10;100.00
56334;BME280;42240;53.626;55.886;2022-12-24T00:23:22;78402.13;;;-145.10;100.00
56334;BME280;42240;53.626;55.886;2022-12-24T00:24:55;78406.06;;;-145.10;100.00
56334;BME280;42240;53.626;55.886;2022-12-24T00:26:27;78419.94;;;-145.10;100.00
56334;BME280;42240;53.626;55.886;2022-12-24T00:28:01;78419.94;;;-145.10;100.00
56334;BME280;42240;53.626;55.886;2022-12-24T00:29:34;78408.06;;;-145.10;100.00
56334;BME280;42240;53.626;55.886;2022-12-24T00:31:08;78415.97;;;-145.10;100.00
56334;BME280;42240;53.626;55.886;2022-12-24T00:32:46;78427.84;;;-145.10;100.00
56334;BME280;42240;53.626;55.886;2022-12-24T00:34:21;78423.88;;;-145.10;100.00
56334;BME280;42240;53.626;55.886;2022-12-24T00:35:54;78421.91;;;-145.10;100.00
56334;BME280;42240;53.626;55.886;2022-12-24T00:37:27;78415.97;;;-145.10;100.00
56334;BME280;42240;53.626;55.886;2022-12-24T00:39:00;78425.84;;;-145.10;100.00
56334;BME280;42240;53.626;55.886;2022-12-24T00:40:33;78431.78;;;-145.10;100.00
56334;BME280;42240;53.626;55.886;2022-12-24T00:42:07;78421.91;;;-145.10;100.00
56334;BME280;42240;53.626;55.886;2022-12-24T00:43:40;78425.84;;;-145.10;100.00
56334;BME280;42240;53.626;55.886;2022-12-24T00:45:12;78421.91;;;-145.10;100.00
56334;BME280;42240;53.626;55.886;2022-12-24T00:46:45;78423.88;;;-145.10;100.00
56334;BME280;42240;53.626;55.886;2022-12-24T00:48:18;78425.84;;;-145.10;100.00
56334;BME280;42240;53.626;55.886;2022-12-24T00:49:50;78415.97;;;-145.10;100.00
56334;BME280;42240;53.626;55.886;2022-12-24T00:51:23;78415.97;;;-145.10;100.00
56334;BME280;42240;53.626;55.886;2022-12-24T00:52:56;78423.88;;;-145.10;100.00
56334;BME280;42240;53.626;55.886;2022-12-24T00:54:30;78415.97;;;-145.10;100.00
56334;BME280;42240;53.626;55.886;2022-12-24T00:56:03;78415.97;;;-145.10;100.00
56334;BME280;42240;53.626;55.886;2022-12-24T00:57:35;78415.97;;;-145.10;100.00
56334;BME280;42240;53.626;55.886;2022-12-24T00:59:08;78414.00;;;-145.10;100.00
56334;BME280;42240;53.626;55.886;2022-12-24T01:00:41;78410.03;;;-145.10;100.00
56334;BME280;42240;53.626;55.886;2022-12-24T01:02:14;78402.13;;;-145.10;100.00
56334;BME280;42240;53.626;55.886;2022-12-24T01:03:47;78417.94;;;-145.10;100.00
56334;BME280;42240;53.626;55.886;2022-12-24T01:05:21;78415.97;;;-145.10;100.00
56334;BME280;42240;53.626;55.886;2022-12-24T01:06:54;78417.94;;;-145.10;100.00
56334;BME280;42240;53.626;55.886;2022-12-24T01:08:27;78417.94;;;-145.10;100.00
56334;BME280;42240;53.626;55.886;2022-12-24T01:10:00;78412.00;;;-145.10;100.00
56334;BME280;42240;53.626;55.886;2022-12-24T01:11:33;78431.78;;;-145.10;100.00
56334;BME280;42240;53.626;55.886;2022-12-24T01:13:05;78427.84;;;-145.10;100.00
56334;BME280;42240;53.626;55.886;2022-12-24T01:14:38;78427.84;;;-145.10;100.00
56334;BME280;42240;53.626;55.886;2022-12-24T01:16:14;78417.94;;;-145.10;100.00
56334;BME280;42240;53.626;55.886;2022-12-24T01:17:48;78427.84;;;-145.10;100.00
56334;BME280;42240;53.626;55.886;2022-12-24T01:19:20;78427.84;;;-145.10;100.00
56334;BME280;42240;53.626;55.886;2022-12-24T01:21:00;78423.88;;;-145.10;100.00
56334;BME280;42240;53.626;55.886;2022-12-24T01:22:33;78429.81;;;-145.10;100.00
56334;BME280;42240;53.626;55.886;2022-12-24T01:24:08;78425.84;;;-145.10;100.00
56334;BME280;42240;53.626;55.886;2022-12-24T01:25:42;78443.66;;;-145.10;100.00
56334;BME280;42240;53.626;55.886;2022-12-24T01:27:15;78431.78;;;-145.10;100.00
56334;BME280;42240;53.626;55.886;2022-12-24T01:28:47;78437.72;;;-145.10;100.00
56334;BME280;42240;53.626;55.886;2022-12-24T01:30:20;78451.56;;;-145.10;100.00
56334;BME280;42240;53.626;55.886;2022-12-24T01:31:53;78459.50;;;-145.10;100.00
56334;BME280;42240;53.626;55.886;2022-12-24T01:33:29;78449.59;;;-145.10;100.00
56334;BME280;42240;53.626;55.886;2022-12-24T01:35:01;78451.56;;;-145.10;100.00
56334;BME280;42240;53.626;55.886;2022-12-24T01:36:35;78447.63;;;-145.10;100.00
56334;BME280;42240;53.626;55.886;2022-12-24T01:38:08;78457.50;;;-145.10;100.00
56334;BME280;42240;53.626;55.886;2022-12-24T01:39:40;78447.63;;;-145.10;100.00
56334;BME280;42240;53.626;55.886;2022-12-24T01:41:14;78453.56;;;-145.10;100.00
56334;BME280;42240;53.626;55.886;2022-12-24T01:43:11;78447.63;;;-145.10;100.00
56334;BME280;42240;53.626;55.886;2022-12-24T01:44:54;78443.66;;;-145.10;100.00
56334;BME280;42240;53.626;55.886;2022-12-24T01:46:28;78443.66;;;-145.10;100.00
56334;BME280;42240;53.626;55.886;2022-12-24T01:48:03;78441.69;;;-145.10;100.00
56334;BME280;42240;53.626;55.886;2022-12-24T01:49:38;78439.72;;;-145.10;100.00
56334;BME280;42240;53.626;55.886;2022-12-24T01:51:24;78441.69;;;-145.10;100.00
56334;BME280;42240;53.626;55.886;2022-12-24T01:52:58;78433.78;;;-145.10;100.00
56334;BME280;42240;53.626;55.886;2022-12-24T01:56:04;78439.72;;;-145.10;100.00
56334;BME280;42240;53.626;55.886;2022-12-24T01:57:41;78435.75;;;-145.10;100.00
56334;BME280;42240;53.626;55.886;2022-12-24T01:59:14;78429.81;;;-145.10;100.00
56334;BME280;42240;53.626;55.886;2022-12-24T02:00:49;78439.72;;;-145.10;100.00
56334;BME280;42240;53.626;55.886;2022-12-24T02:02:22;78435.75;;;-145.10;100.00
56334;BME280;42240;53.626;55.886;2022-12-24T02:03:55;78437.72;;;-145.10;100.00
56334;BME280;42240;53.626;55.886;2022-12-24T02:07:19;78445.63;;;-145.10;100.00
56334;BME280;42240;53.626;55.886;2022-12-24T02:08:52;78443.66;;;-145.10;100.00
56334;BME280;42240;53.626;55.886;2022-12-24T02:10:24;78455.53;;;-145.10;100.00
56334;BME280;42240;53.626;55.886;2022-12-24T02:11:57;78445.63;;;-145.10;100.00
56334;BME280;42240;53.626;55.886;2022-12-24T02:13:30;78439.72;;;-145.10;100.00
56334;BME280;42240;53.626;55.886;2022-12-24T02:15:04;78451.56;;;-145.10;100.00
56334;BME280;42240;53.626;55.886;2022-12-24T02:16:42;78467.41;;;-145.10;100.00
56334;BME280;42240;53.626;55.886;2022-12-24T02:18:25;78471.34;;;-145.10;100.00
56334;BME280;42240;53.626;55.886;2022-12-24T02:23:32;78508.94;;;-145.10;100.00
56334;BME280;42240;53.626;55.886;2022-12-24T02:32:27;78499.06;;;-145.10;100.00
56334;BME280;42240;53.626;55.886;2022-12-24T02:34:05;78495.09;;;-145.10;100.00
56334;BME280;42240;53.626;55.886;2022-12-24T02:38:51;78489.16;;;-145.10;100.00
56334;BME280;42240;53.626;55.886;2022-12-24T02:40:40;78493.13;;;-145.10;100.00
56334;BME280;42240;53.626;55.886;2022-12-24T02:42:14;78481.25;;;-145.10;100.00
56334;BME280;42240;53.626;55.886;2022-12-24T02:43:50;78503.00;;;-145.10;100.00
56334;BME280;42240;53.626;55.886;2022-12-24T02:45:27;78501.03;;;-145.10;100.00
56334;BME280;42240;53.626;55.886;2022-12-24T02:47:00;78499.06;;;-145.10;100.00
56334;BME280;42240;53.626;55.886;2022-12-24T02:48:35;78503.00;;;-145.10;100.00
56334;BME280;42240;53.626;55.886;2022-12-24T02:50:10;78506.97;;;-145.10;100.00
56334;BME280;42240;53.626;55.886;2022-12-24T02:51:43;78508.94;;;-145.10;100.00
56334;BME280;42240;53.626;55.886;2022-12-24T02:53:16;78508.94;;;-145.10;100.00
56334;BME280;42240;53.626;55.886;2022-12-24T02:54:49;78518.84;;;-145.10;100.00
56334;BME280;42240;53.626;55.886;2022-12-24T02:56:25;78508.94;;;-145.10;100.00
56334;BME280;42240;53.626;55.886;2022-12-24T03:04:56;78522.81;;;-145.10;100.00
56334;BME280;42240;53.626;55.886;2022-12-24T03:06:35;78516.88;;;-145.10;100.00
56334;BME280;42240;53.626;55.886;2022-12-24T03:08:15;78516.88;;;-145.10;100.00
56334;BME280;42240;53.626;55.886;2022-12-24T03:11:35;78520.81;;;-145.10;100.00
56334;BME280;42240;53.626;55.886;2022-12-24T03:13:12;78512.91;;;-145.10;100.00
56334;BME280;42240;53.626;55.886;2022-12-24T03:14:46;78510.94;;;-145.10;100.00
56334;BME280;42240;53.626;55.886;2022-12-24T03:16:23;78522.81;;;-145.10;100.00
56334;BME280;42240;53.626;55.886;2022-12-24T03:17:59;78510.94;;;-145.10;100.00
56334;BME280;42240;53.626;55.886;2022-12-24T03:19:33;78514.88;;;-145.10;100.00
56334;BME280;42240;53.626;55.886;2022-12-24T03:21:06;78516.88;;;-145.10;100.00
56334;BME280;42240;53.626;55.886;2022-12-24T03:22:41;78514.88;;;-145.10;100.00
56334;BME280;42240;53.626;55.886;2022-12-24T03:24:16;78522.81;;;-145.10;100.00
56334;BME280;42240;53.626;55.886;2022-12-24T03:25:48;78518.84;;;-145.10;100.00
56334;BME280;42240;53.626;55.886;2022-12-24T03:27:21;78520.81;;;-145.10;100.00
56334;BME280;42240;53.626;55.886;2022-12-24T03:28:57;78522.81;;;-145.10;100.00
56334;BME280;42240;53.626;55.886;2022-12-24T03:30:30;78524.78;;;-145.10;100.00
56334;BME280;42240;53.626;55.886;2022-12-24T03:32:03;78522.81;;;-145.10;100.00
56334;BME280;42240;53.626;55.886;2022-12-24T03:33:36;78516.88;;;-145.10;100.00
56334;BME280;42240;53.626;55.886;2022-12-24T03:35:09;78530.72;;;-145.10;100.00
56334;BME280;42240;53.626;55.886;2022-12-24T03:36:43;78538.63;;;-145.10;100.00
56334;BME280;42240;53.626;55.886;2022-12-24T03:38:15;78542.59;;;-145.10;100.00
56334;BME280;42240;53.626;55.886;2022-12-24T03:39:48;78534.66;;;-145.10;100.00
56334;BME280;42240;53.626;55.886;2022-12-24T03:41:21;78518.84;;;-145.10;100.00
56334;BME280;42240;53.626;55.886;2022-12-24T03:42:54;78512.91;;;-145.10;100.00
56334;BME280;42240;53.626;55.886;2022-12-24T03:44:26;78522.81;;;-145.10;100.00
56334;BME280;42240;53.626;55.886;2022-12-24T03:46:02;78522.81;;;-145.10;100.00
56334;BME280;42240;53.626;55.886;2022-12-24T03:47:35;78522.81;;;-145.10;100.00
56334;BME280;42240;53.626;55.886;2022-12-24T03:49:09;78522.81;;;-145.10;100.00
56334;BME280;42240;53.626;55.886;2022-12-24T03:50:41;78522.81;;;-145.10;100.00
56334;BME280;42240;53.626;55.886;2022-12-24T03:52:14;78528.72;;;-145.10;100.00
56334;BME280;42240;53.626;55.886;2022-12-24T03:53:46;78546.53;;;-145.10;100.00
56334;BME280;42240;53.626;55.886;2022-12-24T03:55:19;78552.47;;;-145.10;100.00
56334;BME280;42240;53.626;55.886;2022-12-24T03:56:52;78566.31;;;-145.10;100.00
56334;BME280;42240;53.626;55.886;2022-12-24T03:58:25;78574.22;;;-145.10;100.00
56334;BME280;42240;53.626;55.886;2022-12-24T03:59:57;78594.03;;;-145.10;100.00
56334;BME280;42240;53.626;55.886;2022-12-24T04:01:30;78601.94;;;-145.10;100.00
56334;BME280;42240;53.626;55.886;2022-12-24T04:03:03;78615.78;;;-145.10;100.00
56334;BME280;42240;53.626;55.886;2022-12-24T04:04:36;78605.88;;;-145.10;100.00
56334;BME280;42240;53.626;55.886;2022-12-24T04:06:09;78613.81;;;-145.10;100.00
56334;BME280;42240;53.626;55.886;2022-12-24T04:07:43;78621.72;;;-145.10;100.00
56334;BME280;42240;53.626;55.886;2022-12-24T04:09:16;78621.72;;;-145.10;100.00
56334;BME280;42240;53.626;55.886;2022-12-24T04:10:49;78631.59;;;-145.10;100.00
56334;BME280;42240;53.626;55.886;2022-12-24T04:12:21;78629.63;;;-145.10;100.00
56334;BME280;42240;53.626;55.886;2022-12-24T04:13:54;78637.53;;;-145.10;100.00
56334;BME280;42240;53.626;55.886;2022-12-24T04:15:27;78645.47;;;-145.10;100.00
56334;BME280;42240;53.626;55.886;2022-12-24T04:16:59;78649.41;;;-145.10;100.00
56334;BME280;42240;53.626;55.886;2022-12-24T04:18:32;78653.38;;;-145.10;100.00
56334;BME280;42240;53.626;55.886;2022-12-24T04:20:06;78639.53;;;-145.10;100.00
56334;BME280;42240;53.626;55.886;2022-12-24T04:21:39;78649.41;;;-145.10;100.00
56334;BME280;42240;53.626;55.886;2022-12-24T04:23:12;78649.41;;;-145.10;100.00
56334;BME280;42240;53.626;55.886;2022-12-24T04:24:44;78641.50;;;-145.10;100.00
56334;BME280;42240;53.626;55.886;2022-12-24T04:26:17;78651.38;;;-145.10;100.00
56334;BME280;42240;53.626;55.886;2022-12-24T04:27:50;78639.53;;;-145.10;100.00
56334;BME280;42240;53.626;55.886;2022-12-24T04:29:23;78641.50;;;-145.10;100.00
56334;BME280;42240;53.626;55.886;2022-12-24T04:30:57;78625.66;;;-145.10;100.00
56334;BME280;42240;53.626;55.886;2022-12-24T04:32:30;78641.50;;;-145.10;100.00
56334;BME280;42240;53.626;55.886;2022-12-24T04:34:02;78649.41;;;-145.10;100.00
56334;BME280;42240;53.626;55.886;2022-12-24T04:35:38;78651.38;;;-145.10;100.00
56334;BME280;42240;53.626;55.886;2022-12-24T04:37:11;78645.47;;;-145.10;100.00
56334;BME280;42240;53.626;55.886;2022-12-24T04:38:45;78629.63;;;-145.10;100.00
56334;BME280;42240;53.626;55.886;2022-12-24T04:40:18;78651.38;;;-145.10;100.00
56334;BME280;42240;53.626;55.886;2022-12-24T04:41:51;78641.50;;;-145.10;100.00
56334;BME280;42240;53.626;55.886;2022-12-24T04:43:23;78639.53;;;-145.10;100.00
56334;BME280;42240;53.626;55.886;2022-12-24T04:44:56;78635.56;;;-145.10;100.00
56334;BME280;42240;53.626;55.886;2022-12-24T04:46:29;78649.41;;;-145.10;100.00
56334;BME280;42240;53.626;55.886;2022-12-24T04:48:02;78647.44;;;-145.10;100.00
56334;BME280;42240;53.626;55.886;2022-12-24T04:49:35;78649.41;;;-145.10;100.00
56334;BME280;42240;53.626;55.886;2022-12-24T04:51:08;78633.59;;;-145.10;100.00
56334;BME280;42240;53.626;55.886;2022-12-24T04:52:41;78647.44;;;-145.10;100.00
56334;BME280;42240;53.626;55.886;2022-12-24T04:54:14;78643.47;;;-145.10;100.00
56334;BME280;42240;53.626;55.886;2022-12-24T04:55:46;78649.41;;;-145.10;100.00
56334;BME280;42240;53.626;55.886;2022-12-24T04:57:23;78655.34;;;-145.10;100.00
56334;BME280;42240;53.626;55.886;2022-12-24T04:58:57;78665.25;;;-145.10;100.00
56334;BME280;42240;53.626;55.886;2022-12-24T05:00:30;78649.41;;;-145.10;100.00
56334;BME280;42240;53.626;55.886;2022-12-24T05:02:02;78649.41;;;-145.10;100.00
56334;BME280;42240;53.626;55.886;2022-12-24T05:03:36;78637.53;;;-145.10;100.00
56334;BME280;42240;53.626;55.886;2022-12-24T05:05:09;78629.63;;;-145.10;100.00
56334;BME280;42240;53.626;55.886;2022-12-24T05:06:42;78633.59;;;-145.10;100.00
56334;BME280;42240;53.626;55.886;2022-12-24T05:08:14;78641.50;;;-145.10;100.00
56334;BME280;42240;53.626;55.886;2022-12-24T05:09:47;78625.66;;;-145.10;100.00
56334;BME280;42240;53.626;55.886;2022-12-24T05:11:20;78641.50;;;-145.10;100.00
56334;BME280;42240;53.626;55.886;2022-12-24T05:12:53;78645.47;;;-145.10;100.00
56334;BME280;42240;53.626;55.886;2022-12-24T05:14:26;78643.47;;;-145.10;100.00
56334;BME280;42240;53.626;55.886;2022-12-24T05:15:59;78641.50;;;-145.10;100.00
56334;BME280;42240;53.626;55.886;2022-12-24T05:17:31;78647.44;;;-145.10;100.00
56334;BME280;42240;53.626;55.886;2022-12-24T05:19:04;78651.38;;;-145.10;100.00
56334;BME280;42240;53.626;55.886;2022-12-24T05:20:37;78651.38;;;-145.10;100.00
56334;BME280;42240;53.626;55.886;2022-12-24T05:22:12;78645.47;;;-145.10;100.00
56334;BME280;42240;53.626;55.886;2022-12-24T05:24:03;78647.44;;;-145.10;100.00
56334;BME280;42240;53.626;55.886;2022-12-24T05:25:54;78661.28;;;-145.10;100.00
56334;BME280;42240;53.626;55.886;2022-12-24T05:27:45;78665.25;;;-145.10;100.00
56334;BME280;42240;53.626;55.886;2022-12-24T05:29:22;78661.28;;;-145.10;100.00
56334;BME280;42240;53.626;55.886;2022-12-24T05:30:55;78677.13;;;-145.10;100.00
56334;BME280;42240;53.626;55.886;2022-12-24T05:32:28;78681.06;;;-145.10;100.00
56334;BME280;42240;53.626;55.886;2022-12-24T05:34:01;78692.94;;;-145.10;100.00
56334;BME280;42240;53.626;55.886;2022-12-24T05:35:34;78681.06;;;-145.10;100.00
56334;BME280;42240;53.626;55.886;2022-12-24T05:37:07;78692.94;;;-145.10;100.00
56334;BME280;42240;53.626;55.886;2022-12-24T05:38:40;78698.88;;;-145.10;100.00
56334;BME280;42240;53.626;55.886;2022-12-24T05:40:12;78700.84;;;-145.10;100.00
56334;BME280;42240;53.626;55.886;2022-12-24T05:41:45;78698.88;;;-145.10;100.00
56334;BME280;42240;53.626;55.886;2022-12-24T05:43:18;78687.00;;;-145.10;100.00
56334;BME280;42240;53.626;55.886;2022-12-24T05:44:50;78687.00;;;-145.10;100.00
56334;BME280;42240;53.626;55.886;2022-12-24T05:46:24;78677.13;;;-145.10;100.00
56334;BME280;42240;53.626;55.886;2022-12-24T05:47:57;78681.06;;;-145.10;100.00
56334;BME280;42240;53.626;55.886;2022-12-24T05:49:29;78653.38;;;-145.10;100.00
56334;BME280;42240;53.626;55.886;2022-12-24T05:51:03;78667.22;;;-145.10;100.00
56334;BME280;42240;53.626;55.886;2022-12-24T05:52:37;78667.22;;;-145.10;100.00
56334;BME280;42240;53.626;55.886;2022-12-24T05:54:10;78665.25;;;-145.10;100.00
56334;BME280;42240;53.626;55.886;2022-12-24T05:55:43;78653.38;;;-145.10;100.00
56334;BME280;42240;53.626;55.886;2022-12-24T05:57:16;78653.38;;;-145.10;100.00
56334;BME280;42240;53.626;55.886;2022-12-24T05:58:48;78653.38;;;-145.10;100.00
56334;BME280;42240;53.626;55.886;2022-12-24T06:00:21;78645.47;;;-145.10;100.00
56334;BME280;42240;53.626;55.886;2022-12-24T06:01:54;78647.44;;;-145.10;100.00
56334;BME280;42240;53.626;55.886;2022-12-24T06:03:28;78653.38;;;-145.10;100.00
56334;BME280;42240;53.626;55.886;2022-12-24T06:05:00;78635.56;;;-145.10;100.00
56334;BME280;42240;53.626;55.886;2022-12-24T06:06:34;78643.47;;;-145.10;100.00
56334;BME280;42240;53.626;55.886;2022-12-24T06:08:06;78647.44;;;-145.10;100.00
56334;BME280;42240;53.626;55.886;2022-12-24T06:09:39;78655.34;;;-145.10;100.00
56334;BME280;42240;53.626;55.886;2022-12-24T06:11:13;78643.47;;;-145.10;100.00
56334;BME280;42240;53.626;55.886;2022-12-24T06:12:46;78669.19;;;-145.10;100.00
56334;BME280;42240;53.626;55.886;2022-12-24T06:14:20;78643.47;;;-145.10;100.00
56334;BME280;42240;53.626;55.886;2022-12-24T06:15:54;78651.38;;;-145.10;100.00
56334;BME280;42240;53.626;55.886;2022-12-24T06:17:27;78633.59;;;-145.10;100.00
56334;BME280;42240;53.626;55.886;2022-12-24T06:18:59;78645.47;;;-145.10;100.00
56334;BME280;42240;53.626;55.886;2022-12-24T06:20:32;78655.34;;;-145.10;100.00
56334;BME280;42240;53.626;55.886;2022-12-24T06:22:05;78653.38;;;-145.10;100.00
56334;BME280;42240;53.626;55.886;2022-12-24T06:23:38;78659.31;;;-145.10;100.00
56334;BME280;42240;53.626;55.886;2022-12-24T06:25:11;78637.53;;;-145.10;100.00
56334;BME280;42240;53.626;55.886;2022-12-24T06:26:44;78649.41;;;-145.10;100.00
56334;BME280;42240;53.626;55.886;2022-12-24T06:28:17;78649.41;;;-145.10;100.00
56334;BME280;42240;53.626;55.886;2022-12-24T06:29:50;78645.47;;;-145.10;100.00
56334;BME280;42240;53.626;55.886;2022-12-24T06:31:23;78625.66;;;-145.10;100.00
56334;BME280;42240;53.626;55.886;2022-12-24T06:32:55;78625.66;;;-145.10;100.00
56334;BME280;42240;53.626;55.886;2022-12-24T06:34:28;78639.53;;;-145.10;100.00
56334;BME280;42240;53.626;55.886;2022-12-24T06:36:01;78625.66;;;-145.10;100.00
56334;BME280;42240;53.626;55.886;2022-12-24T06:37:42;78651.38;;;-145.10;100.00
56334;BME280;42240;53.626;55.886;2022-12-24T06:39:15;78677.13;;;-145.10;100.00
56334;BME280;42240;53.626;55.886;2022-12-24T06:40:48;78649.41;;;-145.10;100.00
56334;BME280;42240;53.626;55.886;2022-12-24T06:42:21;78673.16;;;-145.10;100.00
56334;BME280;42240;53.626;55.886;2022-12-24T06:43:55;78681.06;;;-145.10;100.00
56334;BME280;42240;53.626;55.886;2022-12-24T06:45:28;78685.03;;;-145.10;100.00
56334;BME280;42240;53.626;55.886;2022-12-24T06:47:01;78685.03;;;-145.10;100.00
56334;BME280;42240;53.626;55.886;2022-12-24T06:48:34;78677.13;;;-145.10;100.00
56334;BME280;42240;53.626;55.886;2022-12-24T06:50:07;78685.03;;;-145.10;100.00
56334;BME280;42240;53.626;55.886;2022-12-24T06:51:39;78688.97;;;-145.10;100.00
56334;BME280;42240;53.626;55.886;2022-12-24T06:53:13;78688.97;;;-145.10;100.00
56334;BME280;42240;53.626;55.886;2022-12-24T06:54:45;78712.72;;;-145.10;100.00
56334;BME280;42240;53.626;55.886;2022-12-24T06:56:18;78752.28;;;-145.10;100.00
56334;BME280;42240;53.626;55.886;2022-12-24T06:57:51;78764.16;;;-145.10;100.00
56334;BME280;42240;53.626;55.886;2022-12-24T06:59:24;78760.22;;;-145.10;100.00
56334;BME280;42240;53.626;55.886;2022-12-24T07:00:57;78760.22;;;-145.10;100.00
56334;BME280;42240;53.626;55.886;2022-12-24T07:02:32;78766.13;;;-145.10;100.00
56334;BME280;42240;53.626;55.886;2022-12-24T07:04:04;78748.34;;;-145.10;100.00
56334;BME280;42240;53.626;55.886;2022-12-24T07:05:39;78770.09;;;-145.10;100.00
56334;BME280;42240;53.626;55.886;2022-12-24T07:07:12;78744.38;;;-145.10;100.00
56334;BME280;42240;53.626;55.886;2022-12-24T07:08:44;78748.34;;;-145.10;100.00
56334;BME280;42240;53.626;55.886;2022-12-24T07:10:17;78744.38;;;-145.10;100.00
56334;BME280;42240;53.626;55.886;2022-12-24T07:11:50;78732.50;;;-145.10;100.00
56334;BME280;42240;53.626;55.886;2022-12-24T07:13:23;78720.63;;;-145.10;100.00
56334;BME280;42240;53.626;55.886;2022-12-24T07:14:56;78716.69;;;-145.10;100.00
56334;BME280;42240;53.626;55.886;2022-12-24T07:16:28;78736.47;;;-145.10;100.00
56334;BME280;42240;53.626;55.886;2022-12-24T07:18:02;78722.63;;;-145.10;100.00
56334;BME280;42240;53.626;55.886;2022-12-24T07:19:35;78738.44;;;-145.10;100.00
56334;BME280;42240;53.626;55.886;2022-12-24T07:21:08;78768.13;;;-145.10;100.00
56334;BME280;42240;53.626;55.886;2022-12-24T07:22:41;78748.34;;;-145.10;100.00
56334;BME280;42240;53.626;55.886;2022-12-24T07:24:14;78764.16;;;-145.10;100.00
56334;BME280;42240;53.626;55.886;2022-12-24T07:25:47;78787.91;;;-145.10;100.00
56334;BME280;42240;53.626;55.886;2022-12-24T07:27:20;78783.94;;;-145.10;100.00
56334;BME280;42240;53.626;55.886;2022-12-24T07:28:53;78764.16;;;-145.10;100.00
56334;BME280;42240;53.626;55.886;2022-12-24T07:30:26;78780.00;;;-145.10;100.00
56334;BME280;42240;53.626;55.886;2022-12-24T07:31:58;78801.75;;;-145.10;100.00
56334;BME280;42240;53.626;55.886;2022-12-24T07:33:31;78799.78;;;-145.10;100.00
56334;BME280;42240;53.626;55.886;2022-12-24T07:35:04;78789.88;;;-145.10;100.00
56334;BME280;42240;53.626;55.886;2022-12-24T07:36:37;78787.91;;;-145.10;100.00
56334;BME280;42240;53.626;55.886;2022-12-24T07:38:09;78793.84;;;-145.10;100.00
56334;BME280;42240;53.626;55.886;2022-12-24T07:39:42;78799.78;;;-145.10;100.00
56334;BME280;42240;53.626;55.886;2022-12-24T07:41:15;78815.59;;;-145.10;100.00
56334;BME280;42240;53.626;55.886;2022-12-24T07:42:48;78785.94;;;-145.10;100.00
56334;BME280;42240;53.626;55.886;2022-12-24T07:44:21;78783.94;;;-145.10;100.00
56334;BME280;42240;53.626;55.886;2022-12-24T07:45:56;78774.06;;;-145.10;100.00
56334;BME280;42240;53.626;55.886;2022-12-24T07:47:29;78764.16;;;-145.10;100.00
56334;BME280;42240;53.626;55.886;2022-12-24T07:49:02;78754.28;;;-145.10;100.00
56334;BME280;42240;53.626;55.886;2022-12-24T07:50:35;78744.38;;;-145.10;100.00
56334;BME280;42240;53.626;55.886;2022-12-24T07:52:08;78758.22;;;-145.10;100.00
56334;BME280;42240;53.626;55.886;2022-12-24T07:53:40;78752.28;;;-145.10;100.00
56334;BME280;42240;53.626;55.886;2022-12-24T07:55:22;78756.25;;;-145.10;100.00
56334;BME280;42240;53.626;55.886;2022-12-24T07:56:54;78732.50;;;-145.10;100.00
56334;BME280;42240;53.626;55.886;2022-12-24T07:58:27;78720.63;;;-145.10;100.00
56334;BME280;42240;53.626;55.886;2022-12-24T08:00:00;78726.56;;;-145.10;100.00
56334;BME280;42240;53.626;55.886;2022-12-24T08:01:42;78734.50;;;-145.10;100.00
56334;BME280;42240;53.626;55.886;2022-12-24T08:03:16;78744.38;;;-145.10;100.00
56334;BME280;42240;53.626;55.886;2022-12-24T08:04:50;78744.38;;;-145.10;100.00
56334;BME280;42240;53.626;55.886;2022-12-24T08:06:22;78752.28;;;-145.10;100.00
56334;BME280;42240;53.626;55.886;2022-12-24T08:07:55;78758.22;;;-145.10;100.00
56334;BME280;42240;53.626;55.886;2022-12-24T08:09:30;78740.41;;;-145.10;100.00
56334;BME280;42240;53.626;55.886;2022-12-24T08:11:03;78742.41;;;-145.10;100.00
56334;BME280;42240;53.626;55.886;2022-12-24T08:12:37;78760.22;;;-145.10;100.00
56334;BME280;42240;53.626;55.886;2022-12-24T08:14:10;78772.06;;;-145.10;100.00
56334;BME280;42240;53.626;55.886;2022-12-24T08:15:43;78752.28;;;-145.10;100.00
56334;BME280;42240;53.626;55.886;2022-12-24T08:17:16;78778.00;;;-145.10;100.00
56334;BME280;42240;53.626;55.886;2022-12-24T08:18:49;78772.06;;;-145.10;100.00